sensor_id;sensor_type;location;lat;lon;timestamp;P1;durP1;ratioP1;P2;durP2;ratioP2
64799;SDS011;51233;51.982;4.594;2023-12-07T00:02:40;4.35;;;3.60;;
64799;SDS011;51233;51.982;4.594;2023-12-07T00:05:41;5.45;;;4.13;;
64799;SDS011;51233;51.982;4.594;2023-12-07T00:08:41;4.23;;;3.83;;
64799;SDS011;51233;51.982;4.594;2023-12-07T00:11:41;4.72;;;4.18;;
64799;SDS011;51233;51.982;4.594;2023-12-07T00:14:41;4.03;;;3.15;;
64799;SDS011;51233;51.982;4.594;2023-12-07T00:17:41;4.75;;;3.15;;
64799;SDS011;51233;51.982;4.594;2023-12-07T00:20:41;4.40;;;3.65;;
64799;SDS011;51233;51.982;4.594;2023-12-07T00:23:42;5.93;;;4.07;;
64799;SDS011;51233;51.982;4.594;2023-12-07T00:26:42;4.75;;;3.90;;
64799;SDS011;51233;51.982;4.594;2023-12-07T00:29:42;5.35;;;3.70;;
64799;SDS011;51233;51.982;4.594;2023-12-07T00:32:42;6.13;;;4.80;;
64799;SDS011;51233;51.982;4.594;2023-12-07T00:35:43;5.13;;;4.53;;
64799;SDS011;51233;51.982;4.594;2023-12-07T00:38:43;4.57;;;4.03;;
64799;SDS011;51233;51.982;4.594;2023-12-07T00:41:43;3.80;;;3.50;;
64799;SDS011;51233;51.982;4.594;2023-12-07T00:44:44;4.10;;;3.80;;
64799;SDS011;51233;51.982;4.594;2023-12-07T00:47:44;4.68;;;3.58;;
64799;SDS011;51233;51.982;4.594;2023-12-07T00:50:44;6.43;;;3.45;;
64799;SDS011;51233;51.982;4.594;2023-12-07T00:53:44;6.35;;;4.22;;
64799;SDS011;51233;51.982;4.594;2023-12-07T00:56:44;4.15;;;3.78;;
64799;SDS011;51233;51.982;4.594;2023-12-07T00:59:46;4.80;;;3.83;;
64799;SDS011;51233;51.982;4.594;2023-12-07T01:02:46;4.18;;;3.80;;
64799;SDS011;51233;51.982;4.594;2023-12-07T01:05:46;4.50;;;3.50;;
64799;SDS011;51233;51.982;4.594;2023-12-07T01:08:46;4.43;;;3.78;;
64799;SDS011;51233;51.982;4.594;2023-12-07T01:11:46;5.30;;;3.90;;
64799;SDS011;51233;51.982;4.594;2023-12-07T01:14:46;4.47;;;4.03;;
64799;SDS011;51233;51.982;4.594;2023-12-07T01:17:47;4.60;;;4.20;;
64799;SDS011;51233;51.982;4.594;2023-12-07T01:20:47;4.55;;;4.00;;
64799;SDS011;51233;51.982;4.594;2023-12-07T01:23:48;4.23;;;3.77;;
64799;SDS011;51233;51.982;4.594;2023-12-07T01:26:48;4.78;;;4.32;;
64799;SDS011;51233;51.982;4.594;2023-12-07T01:29:48;5.00;;;3.83;;
64799;SDS011;51233;51.982;4.594;2023-12-07T01:32:48;4.40;;;3.78;;
64799;SDS011;51233;51.982;4.594;2023-12-07T01:35:48;4.20;;;3.77;;
64799;SDS011;51233;51.982;4.594;2023-12-07T01:38:48;4.80;;;3.60;;
64799;SDS011;51233;51.982;4.594;2023-12-07T01:41:49;4.85;;;3.95;;
64799;SDS011;51233;51.982;4.594;2023-12-07T01:44:50;4.97;;;4.13;;
64799;SDS011;51233;51.982;4.594;2023-12-07T01:47:50;4.55;;;3.95;;
64799;SDS011;51233;51.982;4.594;2023-12-07T01:50:55;4.13;;;3.70;;
64799;SDS011;51233;51.982;4.594;2023-12-07T01:53:56;3.95;;;3.65;;
64799;SDS011;51233;51.982;4.594;2023-12-07T01:56:56;4.17;;;3.77;;
64799;SDS011;51233;51.982;4.594;2023-12-07T01:59:56;4.13;;;3.30;;
64799;SDS011;51233;51.982;4.594;2023-12-07T02:02:56;5.18;;;4.00;;
64799;SDS011;51233;51.982;4.594;2023-12-07T02:05:57;3.97;;;3.57;;
64799;SDS011;51233;51.982;4.594;2023-12-07T02:08:58;4.13;;;3.72;;
64799;SDS011;51233;51.982;4.594;2023-12-07T02:11:58;4.07;;;3.70;;
64799;SDS011;51233;51.982;4.594;2023-12-07T02:14:58;4.47;;;3.70;;
64799;SDS011;51233;51.982;4.594;2023-12-07T02:21:20;6.10;;;3.97;;
64799;SDS011;51233;51.982;4.594;2023-12-07T02:24:21;4.63;;;4.10;;
64799;SDS011;51233;51.982;4.594;2023-12-07T02:27:40;5.57;;;4.53;;
64799;SDS011;51233;51.982;4.594;2023-12-07T02:30:41;3.85;;;3.38;;
64799;SDS011;51233;51.982;4.594;2023-12-07T02:33:41;3.63;;;3.30;;
64799;SDS011;51233;51.982;4.594;2023-12-07T02:36:41;4.03;;;3.63;;
64799;SDS011;51233;51.982;4.594;2023-12-07T02:39:43;4.40;;;3.70;;
64799;SDS011;51233;51.982;4.594;2023-12-07T02:42:43;3.92;;;3.60;;
64799;SDS011;51233;51.982;4.594;2023-12-07T02:45:44;3.53;;;3.27;;
64799;SDS011;51233;51.982;4.594;2023-12-07T02:48:44;5.13;;;3.80;;
64799;SDS011;51233;51.982;4.594;2023-12-07T02:51:44;4.03;;;3.65;;
64799;SDS011;51233;51.982;4.594;2023-12-07T02:54:44;7.25;;;4.32;;
64799;SDS011;51233;51.982;4.594;2023-12-07T02:57:45;6.20;;;3.85;;
64799;SDS011;51233;51.982;4.594;2023-12-07T03:00:45;4.20;;;3.80;;
64799;SDS011;51233;51.982;4.594;2023-12-07T03:03:45;4.38;;;3.53;;
64799;SDS011;51233;51.982;4.594;2023-12-07T03:06:45;4.20;;;3.83;;
64799;SDS011;51233;51.982;4.594;2023-12-07T03:09:45;4.32;;;3.92;;
64799;SDS011;51233;51.982;4.594;2023-12-07T03:12:46;4.35;;;3.60;;
64799;SDS011;51233;51.982;4.594;2023-12-07T03:15:46;4.82;;;4.00;;
64799;SDS011;51233;51.982;4.594;2023-12-07T03:18:46;4.18;;;3.70;;
64799;SDS011;51233;51.982;4.594;2023-12-07T03:21:46;4.82;;;4.07;;
64799;SDS011;51233;51.982;4.594;2023-12-07T03:24:50;4.05;;;3.75;;
64799;SDS011;51233;51.982;4.594;2023-12-07T03:27:51;5.20;;;4.05;;
64799;SDS011;51233;51.982;4.594;2023-12-07T03:30:51;4.78;;;3.70;;
64799;SDS011;51233;51.982;4.594;2023-12-07T03:33:51;4.75;;;3.92;;
64799;SDS011;51233;51.982;4.594;2023-12-07T03:36:51;5.40;;;4.20;;
64799;SDS011;51233;51.982;4.594;2023-12-07T03:39:52;6.45;;;4.90;;
64799;SDS011;51233;51.982;4.594;2023-12-07T03:42:52;7.75;;;4.57;;
64799;SDS011;51233;51.982;4.594;2023-12-07T03:45:52;5.00;;;4.43;;
64799;SDS011;51233;51.982;4.594;2023-12-07T03:48:52;4.77;;;4.20;;
64799;SDS011;51233;51.982;4.594;2023-12-07T03:51:53;4.85;;;3.80;;
64799;SDS011;51233;51.982;4.594;2023-12-07T03:54:54;5.43;;;4.13;;
64799;SDS011;51233;51.982;4.594;2023-12-07T03:57:54;6.22;;;4.45;;
64799;SDS011;51233;51.982;4.594;2023-12-07T04:00:54;7.60;;;5.00;;
64799;SDS011;51233;51.982;4.594;2023-12-07T04:03:55;8.83;;;5.27;;
64799;SDS011;51233;51.982;4.594;2023-12-07T04:06:55;6.53;;;5.20;;
64799;SDS011;51233;51.982;4.594;2023-12-07T04:09:56;5.33;;;4.70;;
64799;SDS011;51233;51.982;4.594;2023-12-07T04:12:57;8.50;;;5.68;;
64799;SDS011;51233;51.982;4.594;2023-12-07T04:15:57;9.47;;;6.43;;
64799;SDS011;51233;51.982;4.594;2023-12-07T04:18:57;10.37;;;8.30;;
64799;SDS011;51233;51.982;4.594;2023-12-07T04:21:58;11.43;;;8.13;;
64799;SDS011;51233;51.982;4.594;2023-12-07T04:24:58;13.70;;;8.70;;
64799;SDS011;51233;51.982;4.594;2023-12-07T04:27:58;10.73;;;8.23;;
64799;SDS011;51233;51.982;4.594;2023-12-07T04:30:59;10.67;;;7.73;;
64799;SDS011;51233;51.982;4.594;2023-12-07T04:33:59;10.98;;;7.50;;
64799;SDS011;51233;51.982;4.594;2023-12-07T04:36:59;10.57;;;7.70;;
64799;SDS011;51233;51.982;4.594;2023-12-07T04:39:59;11.67;;;8.67;;
64799;SDS011;51233;51.982;4.594;2023-12-07T04:43:00;12.35;;;9.48;;
64799;SDS011;51233;51.982;4.594;2023-12-07T04:46:00;14.93;;;10.88;;
64799;SDS011;51233;51.982;4.594;2023-12-07T04:49:00;17.73;;;11.83;;
64799;SDS011;51233;51.982;4.594;2023-12-07T04:52:00;16.40;;;11.23;;
64799;SDS011;51233;51.982;4.594;2023-12-07T04:55:00;16.47;;;11.10;;
64799;SDS011;51233;51.982;4.594;2023-12-07T04:58:01;13.00;;;10.52;;
64799;SDS011;51233;51.982;4.594;2023-12-07T05:01:01;10.57;;;9.37;;
64799;SDS011;51233;51.982;4.594;2023-12-07T05:04:01;11.23;;;9.97;;
64799;SDS011;51233;51.982;4.594;2023-12-07T05:07:03;12.77;;;11.38;;
64799;SDS011;51233;51.982;4.594;2023-12-07T05:10:04;12.00;;;9.45;;
64799;SDS011;51233;51.982;4.594;2023-12-07T05:13:04;14.53;;;11.70;;
64799;SDS011;51233;51.982;4.594;2023-12-07T05:16:04;11.02;;;9.93;;
64799;SDS011;51233;51.982;4.594;2023-12-07T05:19:04;13.50;;;11.47;;
64799;SDS011;51233;51.982;4.594;2023-12-07T05:22:05;11.60;;;10.40;;
64799;SDS011;51233;51.982;4.594;2023-12-07T05:25:05;12.73;;;11.43;;
64799;SDS011;51233;51.982;4.594;2023-12-07T05:28:06;11.57;;;8.80;;
64799;SDS011;51233;51.982;4.594;2023-12-07T05:31:06;9.95;;;9.05;;
64799;SDS011;51233;51.982;4.594;2023-12-07T05:34:07;10.32;;;9.00;;
64799;SDS011;51233;51.982;4.594;2023-12-07T05:37:07;14.77;;;8.77;;
64799;SDS011;51233;51.982;4.594;2023-12-07T05:40:08;9.05;;;8.25;;
64799;SDS011;51233;51.982;4.594;2023-12-07T05:43:09;9.65;;;8.15;;
64799;SDS011;51233;51.982;4.594;2023-12-07T05:46:09;10.70;;;8.73;;
64799;SDS011;51233;51.982;4.594;2023-12-07T05:49:09;9.57;;;8.63;;
64799;SDS011;51233;51.982;4.594;2023-12-07T05:52:09;10.27;;;8.43;;
64799;SDS011;51233;51.982;4.594;2023-12-07T05:55:10;9.07;;;8.18;;
64799;SDS011;51233;51.982;4.594;2023-12-07T05:58:10;8.75;;;7.95;;
64799;SDS011;51233;51.982;4.594;2023-12-07T06:01:10;8.90;;;8.02;;
64799;SDS011;51233;51.982;4.594;2023-12-07T06:04:10;8.83;;;7.93;;
64799;SDS011;51233;51.982;4.594;2023-12-07T06:07:12;9.10;;;8.30;;
64799;SDS011;51233;51.982;4.594;2023-12-07T06:10:12;10.35;;;8.45;;
64799;SDS011;51233;51.982;4.594;2023-12-07T06:13:12;9.77;;;8.85;;
64799;SDS011;51233;51.982;4.594;2023-12-07T06:16:13;12.70;;;10.15;;
64799;SDS011;51233;51.982;4.594;2023-12-07T06:19:14;9.93;;;8.93;;
64799;SDS011;51233;51.982;4.594;2023-12-07T06:22:14;9.67;;;8.63;;
64799;SDS011;51233;51.982;4.594;2023-12-07T06:25:15;9.43;;;8.45;;
64799;SDS011;51233;51.982;4.594;2023-12-07T06:28:16;10.32;;;9.32;;
64799;SDS011;51233;51.982;4.594;2023-12-07T06:31:16;11.55;;;9.95;;
64799;SDS011;51233;51.982;4.594;2023-12-07T06:34:19;12.05;;;10.18;;
64799;SDS011;51233;51.982;4.594;2023-12-07T06:37:20;12.55;;;9.50;;
64799;SDS011;51233;51.982;4.594;2023-12-07T06:40:20;10.82;;;7.93;;
64799;SDS011;51233;51.982;4.594;2023-12-07T06:43:20;9.93;;;8.93;;
64799;SDS011;51233;51.982;4.594;2023-12-07T06:46:20;8.88;;;8.07;;
64799;SDS011;51233;51.982;4.594;2023-12-07T06:49:20;8.60;;;7.74;;
64799;SDS011;51233;51.982;4.594;2023-12-07T06:52:21;8.85;;;7.90;;
64799;SDS011;51233;51.982;4.594;2023-12-07T06:55:21;8.80;;;7.90;;
64799;SDS011;51233;51.982;4.594;2023-12-07T06:58:22;8.93;;;8.02;;
64799;SDS011;51233;51.982;4.594;2023-12-07T07:01:22;9.10;;;8.20;;
64799;SDS011;51233;51.982;4.594;2023-12-07T07:04:23;10.10;;;9.10;;
64799;SDS011;51233;51.982;4.594;2023-12-07T07:07:23;9.13;;;8.23;;
64799;SDS011;51233;51.982;4.594;2023-12-07T07:10:23;14.32;;;9.18;;
64799;SDS011;51233;51.982;4.594;2023-12-07T07:13:24;9.50;;;8.60;;
64799;SDS011;51233;51.982;4.594;2023-12-07T07:16:25;9.97;;;8.90;;
64799;SDS011;51233;51.982;4.594;2023-12-07T07:19:25;9.40;;;8.50;;
64799;SDS011;51233;51.982;4.594;2023-12-07T07:22:25;10.63;;;9.02;;
64799;SDS011;51233;51.982;4.594;2023-12-07T07:25:25;13.02;;;8.80;;
64799;SDS011;51233;51.982;4.594;2023-12-07T07:28:25;10.27;;;8.17;;
64799;SDS011;51233;51.982;4.594;2023-12-07T07:31:25;8.80;;;7.95;;
64799;SDS011;51233;51.982;4.594;2023-12-07T07:34:26;8.88;;;8.07;;
64799;SDS011;51233;51.982;4.594;2023-12-07T07:37:26;9.27;;;8.43;;
64799;SDS011;51233;51.982;4.594;2023-12-07T07:40:26;9.75;;;8.75;;
64799;SDS011;51233;51.982;4.594;2023-12-07T07:43:26;10.90;;;9.73;;
64799;SDS011;51233;51.982;4.594;2023-12-07T07:46:26;15.15;;;8.93;;
64799;SDS011;51233;51.982;4.594;2023-12-07T07:49:26;16.20;;;10.67;;
64799;SDS011;51233;51.982;4.594;2023-12-07T07:52:27;10.40;;;8.50;;
64799;SDS011;51233;51.982;4.594;2023-12-07T07:55:27;8.77;;;7.88;;
64799;SDS011;51233;51.982;4.594;2023-12-07T07:58:27;9.43;;;8.53;;
64799;SDS011;51233;51.982;4.594;2023-12-07T08:01:27;9.50;;;8.03;;
64799;SDS011;51233;51.982;4.594;2023-12-07T08:04:27;10.03;;;9.03;;
64799;SDS011;51233;51.982;4.594;2023-12-07T08:07:28;9.50;;;8.70;;
64799;SDS011;51233;51.982;4.594;2023-12-07T08:10:28;10.25;;;9.07;;
64799;SDS011;51233;51.982;4.594;2023-12-07T08:13:28;9.30;;;7.85;;
64799;SDS011;51233;51.982;4.594;2023-12-07T08:16:28;8.07;;;7.30;;
64799;SDS011;51233;51.982;4.594;2023-12-07T08:19:28;8.90;;;7.95;;
64799;SDS011;51233;51.982;4.594;2023-12-07T08:22:28;14.02;;;8.98;;
64799;SDS011;51233;51.982;4.594;2023-12-07T08:25:29;9.77;;;7.90;;
64799;SDS011;51233;51.982;4.594;2023-12-07T08:28:29;8.65;;;7.75;;
64799;SDS011;51233;51.982;4.594;2023-12-07T08:31:29;10.73;;;9.18;;
64799;SDS011;51233;51.982;4.594;2023-12-07T08:34:29;16.00;;;8.10;;
64799;SDS011;51233;51.982;4.594;2023-12-07T08:37:30;12.18;;;10.75;;
64799;SDS011;51233;51.982;4.594;2023-12-07T08:40:30;11.68;;;10.45;;
64799;SDS011;51233;51.982;4.594;2023-12-07T08:43:30;17.00;;;10.52;;
64799;SDS011;51233;51.982;4.594;2023-12-07T08:46:31;9.30;;;7.82;;
64799;SDS011;51233;51.982;4.594;2023-12-07T08:49:31;10.98;;;9.30;;
64799;SDS011;51233;51.982;4.594;2023-12-07T08:52:31;12.55;;;11.07;;
64799;SDS011;51233;51.982;4.594;2023-12-07T08:55:31;13.60;;;9.63;;
64799;SDS011;51233;51.982;4.594;2023-12-07T08:58:32;14.47;;;11.20;;
64799;SDS011;51233;51.982;4.594;2023-12-07T09:01:32;14.35;;;11.07;;
64799;SDS011;51233;51.982;4.594;2023-12-07T09:04:33;12.60;;;9.70;;
64799;SDS011;51233;51.982;4.594;2023-12-07T09:07:33;14.00;;;12.45;;
64799;SDS011;51233;51.982;4.594;2023-12-07T09:10:33;14.13;;;10.75;;
64799;SDS011;51233;51.982;4.594;2023-12-07T09:13:33;13.75;;;10.20;;
64799;SDS011;51233;51.982;4.594;2023-12-07T09:16:33;11.82;;;10.00;;
64799;SDS011;51233;51.982;4.594;2023-12-07T09:19:34;15.20;;;13.20;;
64799;SDS011;51233;51.982;4.594;2023-12-07T09:22:34;17.10;;;13.93;;
64799;SDS011;51233;51.982;4.594;2023-12-07T09:25:35;15.10;;;11.93;;
64799;SDS011;51233;51.982;4.594;2023-12-07T09:28:35;20.35;;;14.43;;
64799;SDS011;51233;51.982;4.594;2023-12-07T09:31:35;25.27;;;17.98;;
64799;SDS011;51233;51.982;4.594;2023-12-07T09:34:35;19.05;;;14.23;;
64799;SDS011;51233;51.982;4.594;2023-12-07T09:37:36;18.92;;;14.30;;
64799;SDS011;51233;51.982;4.594;2023-12-07T09:40:36;20.27;;;15.63;;
64799;SDS011;51233;51.982;4.594;2023-12-07T09:43:36;21.23;;;15.80;;
64799;SDS011;51233;51.982;4.594;2023-12-07T09:46:36;20.58;;;14.93;;
64799;SDS011;51233;51.982;4.594;2023-12-07T09:49:37;19.10;;;15.40;;
64799;SDS011;51233;51.982;4.594;2023-12-07T09:52:37;18.65;;;15.27;;
64799;SDS011;51233;51.982;4.594;2023-12-07T09:55:37;19.00;;;15.95;;
64799;SDS011;51233;51.982;4.594;2023-12-07T09:58:39;20.73;;;15.73;;
64799;SDS011;51233;51.982;4.594;2023-12-07T10:01:39;15.27;;;12.25;;
64799;SDS011;51233;51.982;4.594;2023-12-07T10:04:39;17.55;;;13.00;;
64799;SDS011;51233;51.982;4.594;2023-12-07T10:07:40;20.00;;;13.57;;
64799;SDS011;51233;51.982;4.594;2023-12-07T10:10:40;17.58;;;13.50;;
64799;SDS011;51233;51.982;4.594;2023-12-07T10:13:40;17.77;;;14.88;;
64799;SDS011;51233;51.982;4.594;2023-12-07T10:16:53;15.48;;;13.55;;
64799;SDS011;51233;51.982;4.594;2023-12-07T10:20:08;14.77;;;11.77;;
64799;SDS011;51233;51.982;4.594;2023-12-07T10:23:09;15.70;;;11.57;;
64799;SDS011;51233;51.982;4.594;2023-12-07T10:26:09;14.47;;;10.93;;
64799;SDS011;51233;51.982;4.594;2023-12-07T10:29:10;15.57;;;12.10;;
64799;SDS011;51233;51.982;4.594;2023-12-07T10:32:10;17.13;;;12.35;;
64799;SDS011;51233;51.982;4.594;2023-12-07T10:35:10;15.27;;;11.57;;
64799;SDS011;51233;51.982;4.594;2023-12-07T10:38:11;13.37;;;11.57;;
64799;SDS011;51233;51.982;4.594;2023-12-07T10:41:12;13.50;;;9.95;;
64799;SDS011;51233;51.982;4.594;2023-12-07T10:44:14;13.07;;;10.27;;
64799;SDS011;51233;51.982;4.594;2023-12-07T10:47:15;14.75;;;11.35;;
64799;SDS011;51233;51.982;4.594;2023-12-07T10:50:16;14.07;;;10.20;;
64799;SDS011;51233;51.982;4.594;2023-12-07T10:53:26;14.65;;;10.93;;
64799;SDS011;51233;51.982;4.594;2023-12-07T10:56:28;14.95;;;10.45;;
64799;SDS011;51233;51.982;4.594;2023-12-07T10:59:29;11.77;;;9.98;;
64799;SDS011;51233;51.982;4.594;2023-12-07T11:02:32;12.60;;;9.60;;
64799;SDS011;51233;51.982;4.594;2023-12-07T11:05:32;12.90;;;10.18;;
64799;SDS011;51233;51.982;4.594;2023-12-07T11:08:36;13.93;;;11.00;;
64799;SDS011;51233;51.982;4.594;2023-12-07T11:11:45;12.07;;;10.65;;
64799;SDS011;51233;51.982;4.594;2023-12-07T11:14:46;9.60;;;8.40;;
64799;SDS011;51233;51.982;4.594;2023-12-07T11:17:50;10.55;;;8.88;;
64799;SDS011;51233;51.982;4.594;2023-12-07T11:20:51;9.88;;;8.50;;
64799;SDS011;51233;51.982;4.594;2023-12-07T11:23:53;9.32;;;8.02;;
64799;SDS011;51233;51.982;4.594;2023-12-07T11:26:57;9.67;;;8.10;;
64799;SDS011;51233;51.982;4.594;2023-12-07T11:30:00;8.65;;;6.70;;
64799;SDS011;51233;51.982;4.594;2023-12-07T11:33:05;13.10;;;8.90;;
64799;SDS011;51233;51.982;4.594;2023-12-07T11:36:06;11.20;;;9.85;;
64799;SDS011;51233;51.982;4.594;2023-12-07T11:42:07;11.60;;;9.73;;
64799;SDS011;51233;51.982;4.594;2023-12-07T11:45:09;9.85;;;8.85;;
64799;SDS011;51233;51.982;4.594;2023-12-07T11:48:13;10.43;;;9.33;;
64799;SDS011;51233;51.982;4.594;2023-12-07T11:51:14;10.20;;;8.88;;
64799;SDS011;51233;51.982;4.594;2023-12-07T11:54:14;10.52;;;9.25;;
64799;SDS011;51233;51.982;4.594;2023-12-07T11:57:15;12.47;;;10.40;;
64799;SDS011;51233;51.982;4.594;2023-12-07T12:00:16;11.83;;;10.23;;
64799;SDS011;51233;51.982;4.594;2023-12-07T12:03:16;13.10;;;11.77;;
64799;SDS011;51233;51.982;4.594;2023-12-07T12:06:17;11.70;;;10.50;;
64799;SDS011;51233;51.982;4.594;2023-12-07T12:09:17;11.90;;;9.77;;
64799;SDS011;51233;51.982;4.594;2023-12-07T12:12:17;12.38;;;10.98;;
64799;SDS011;51233;51.982;4.594;2023-12-07T12:15:18;10.80;;;9.47;;
64799;SDS011;51233;51.982;4.594;2023-12-07T12:18:18;12.93;;;11.57;;
64799;SDS011;51233;51.982;4.594;2023-12-07T12:21:18;13.23;;;11.83;;
64799;SDS011;51233;51.982;4.594;2023-12-07T12:24:20;12.93;;;11.50;;
64799;SDS011;51233;51.982;4.594;2023-12-07T12:27:20;15.25;;;10.35;;
64799;SDS011;51233;51.982;4.594;2023-12-07T12:30:21;12.17;;;10.97;;
64799;SDS011;51233;51.982;4.594;2023-12-07T12:36:22;14.60;;;11.40;;
64799;SDS011;51233;51.982;4.594;2023-12-07T12:39:27;12.05;;;10.32;;
64799;SDS011;51233;51.982;4.594;2023-12-07T12:42:28;10.02;;;8.90;;
64799;SDS011;51233;51.982;4.594;2023-12-07T12:45:29;12.10;;;10.90;;
64799;SDS011;51233;51.982;4.594;2023-12-07T12:48:29;12.30;;;10.20;;
64799;SDS011;51233;51.982;4.594;2023-12-07T12:51:29;13.60;;;10.63;;
64799;SDS011;51233;51.982;4.594;2023-12-07T12:54:32;11.73;;;10.20;;
64799;SDS011;51233;51.982;4.594;2023-12-07T12:57:32;11.43;;;10.23;;
64799;SDS011;51233;51.982;4.594;2023-12-07T13:00:33;10.70;;;9.27;;
64799;SDS011;51233;51.982;4.594;2023-12-07T13:03:34;9.83;;;8.73;;
64799;SDS011;51233;51.982;4.594;2023-12-07T13:06:34;10.10;;;9.00;;
64799;SDS011;51233;51.982;4.594;2023-12-07T13:09:34;11.13;;;9.32;;
64799;SDS011;51233;51.982;4.594;2023-12-07T13:12:34;11.40;;;9.10;;
64799;SDS011;51233;51.982;4.594;2023-12-07T13:15:35;9.87;;;8.80;;
64799;SDS011;51233;51.982;4.594;2023-12-07T13:18:35;9.03;;;7.93;;
64799;SDS011;51233;51.982;4.594;2023-12-07T13:21:35;10.32;;;8.18;;
64799;SDS011;51233;51.982;4.594;2023-12-07T13:24:36;10.83;;;8.37;;
64799;SDS011;51233;51.982;4.594;2023-12-07T13:27:36;14.18;;;8.80;;
64799;SDS011;51233;51.982;4.594;2023-12-07T13:30:36;9.80;;;8.80;;
64799;SDS011;51233;51.982;4.594;2023-12-07T13:33:36;10.20;;;9.20;;
64799;SDS011;51233;51.982;4.594;2023-12-07T13:36:36;9.70;;;8.65;;
64799;SDS011;51233;51.982;4.594;2023-12-07T13:39:37;8.82;;;7.88;;
64799;SDS011;51233;51.982;4.594;2023-12-07T13:42:38;11.68;;;8.52;;
64799;SDS011;51233;51.982;4.594;2023-12-07T13:45:38;10.35;;;8.20;;
64799;SDS011;51233;51.982;4.594;2023-12-07T13:48:38;9.52;;;8.63;;
64799;SDS011;51233;51.982;4.594;2023-12-07T13:51:38;11.35;;;9.18;;
64799;SDS011;51233;51.982;4.594;2023-12-07T13:54:38;11.05;;;9.70;;
64799;SDS011;51233;51.982;4.594;2023-12-07T13:57:39;10.05;;;8.32;;
64799;SDS011;51233;51.982;4.594;2023-12-07T14:00:39;8.90;;;8.10;;
64799;SDS011;51233;51.982;4.594;2023-12-07T14:03:39;9.45;;;8.32;;
64799;SDS011;51233;51.982;4.594;2023-12-07T14:06:40;11.65;;;8.52;;
64799;SDS011;51233;51.982;4.594;2023-12-07T14:09:41;12.88;;;8.55;;
64799;SDS011;51233;51.982;4.594;2023-12-07T14:15:42;10.93;;;8.68;;
64799;SDS011;51233;51.982;4.594;2023-12-07T14:18:42;12.55;;;8.93;;
64799;SDS011;51233;51.982;4.594;2023-12-07T14:21:42;10.55;;;8.80;;
64799;SDS011;51233;51.982;4.594;2023-12-07T14:24:43;8.82;;;7.93;;
64799;SDS011;51233;51.982;4.594;2023-12-07T14:27:43;10.00;;;8.67;;
64799;SDS011;51233;51.982;4.594;2023-12-07T14:30:45;10.90;;;9.20;;
64799;SDS011;51233;51.982;4.594;2023-12-07T14:33:45;8.88;;;8.00;;
64799;SDS011;51233;51.982;4.594;2023-12-07T14:36:45;11.17;;;8.87;;
64799;SDS011;51233;51.982;4.594;2023-12-07T14:39:45;10.15;;;8.85;;
64799;SDS011;51233;51.982;4.594;2023-12-07T14:42:45;10.25;;;8.95;;
64799;SDS011;51233;51.982;4.594;2023-12-07T14:45:46;10.02;;;9.00;;
64799;SDS011;51233;51.982;4.594;2023-12-07T14:48:46;9.93;;;8.75;;
64799;SDS011;51233;51.982;4.594;2023-12-07T14:51:49;9.60;;;8.60;;
64799;SDS011;51233;51.982;4.594;2023-12-07T14:54:49;10.23;;;9.15;;
64799;SDS011;51233;51.982;4.594;2023-12-07T14:57:50;10.65;;;9.30;;
64799;SDS011;51233;51.982;4.594;2023-12-07T15:00:51;9.77;;;8.67;;
64799;SDS011;51233;51.982;4.594;2023-12-07T15:03:51;9.32;;;8.43;;
64799;SDS011;51233;51.982;4.594;2023-12-07T15:06:51;11.18;;;10.07;;
64799;SDS011;51233;51.982;4.594;2023-12-07T15:09:53;10.60;;;8.82;;
64799;SDS011;51233;51.982;4.594;2023-12-07T15:12:54;9.88;;;8.93;;
64799;SDS011;51233;51.982;4.594;2023-12-07T15:15:54;10.82;;;9.23;;
64799;SDS011;51233;51.982;4.594;2023-12-07T15:18:54;11.30;;;9.13;;
64799;SDS011;51233;51.982;4.594;2023-12-07T15:21:55;11.18;;;9.18;;
64799;SDS011;51233;51.982;4.594;2023-12-07T15:24:55;10.05;;;8.27;;
64799;SDS011;51233;51.982;4.594;2023-12-07T15:27:55;8.40;;;7.60;;
64799;SDS011;51233;51.982;4.594;2023-12-07T15:30:55;9.83;;;8.87;;
64799;SDS011;51233;51.982;4.594;2023-12-07T15:33:56;10.32;;;8.15;;
64799;SDS011;51233;51.982;4.594;2023-12-07T15:36:56;11.95;;;9.23;;
64799;SDS011;51233;51.982;4.594;2023-12-07T15:39:56;9.20;;;8.30;;
64799;SDS011;51233;51.982;4.594;2023-12-07T15:42:56;11.37;;;10.27;;
64799;SDS011;51233;51.982;4.594;2023-12-07T15:45:56;11.07;;;9.73;;
64799;SDS011;51233;51.982;4.594;2023-12-07T15:48:57;9.60;;;8.60;;
64799;SDS011;51233;51.982;4.594;2023-12-07T15:51:57;11.45;;;9.27;;
64799;SDS011;51233;51.982;4.594;2023-12-07T15:54:57;11.23;;;9.95;;
64799;SDS011;51233;51.982;4.594;2023-12-07T15:57:57;13.33;;;12.03;;
64799;SDS011;51233;51.982;4.594;2023-12-07T16:00:57;12.55;;;10.73;;
64799;SDS011;51233;51.982;4.594;2023-12-07T16:03:58;13.10;;;11.70;;
64799;SDS011;51233;51.982;4.594;2023-12-07T16:06:58;13.00;;;11.65;;
64799;SDS011;51233;51.982;4.594;2023-12-07T16:09:58;13.17;;;11.03;;
64799;SDS011;51233;51.982;4.594;2023-12-07T16:12:59;13.97;;;12.57;;
64799;SDS011;51233;51.982;4.594;2023-12-07T16:15:59;14.13;;;12.63;;
64799;SDS011;51233;51.982;4.594;2023-12-07T16:18:59;13.13;;;11.73;;
64799;SDS011;51233;51.982;4.594;2023-12-07T16:21:59;12.32;;;11.10;;
64799;SDS011;51233;51.982;4.594;2023-12-07T16:24:59;14.77;;;13.27;;
64799;SDS011;51233;51.982;4.594;2023-12-07T16:28:02;13.80;;;12.30;;
64799;SDS011;51233;51.982;4.594;2023-12-07T16:31:02;12.80;;;11.27;;
64799;SDS011;51233;51.982;4.594;2023-12-07T16:34:02;11.15;;;9.25;;
64799;SDS011;51233;51.982;4.594;2023-12-07T16:37:03;12.90;;;11.50;;
64799;SDS011;51233;51.982;4.594;2023-12-07T16:40:03;13.02;;;11.65;;
64799;SDS011;51233;51.982;4.594;2023-12-07T16:43:03;14.85;;;11.65;;
64799;SDS011;51233;51.982;4.594;2023-12-07T16:46:04;12.52;;;10.68;;
64799;SDS011;51233;51.982;4.594;2023-12-07T16:49:06;11.90;;;10.68;;
64799;SDS011;51233;51.982;4.594;2023-12-07T16:52:07;14.65;;;11.50;;
64799;SDS011;51233;51.982;4.594;2023-12-07T16:55:07;15.40;;;12.60;;
64799;SDS011;51233;51.982;4.594;2023-12-07T16:58:07;19.65;;;13.27;;
64799;SDS011;51233;51.982;4.594;2023-12-07T17:01:07;14.73;;;12.02;;
64799;SDS011;51233;51.982;4.594;2023-12-07T17:04:08;12.48;;;9.93;;
64799;SDS011;51233;51.982;4.594;2023-12-07T17:07:08;15.23;;;9.93;;
64799;SDS011;51233;51.982;4.594;2023-12-07T17:10:08;11.82;;;10.10;;
64799;SDS011;51233;51.982;4.594;2023-12-07T17:13:08;12.37;;;9.73;;
64799;SDS011;51233;51.982;4.594;2023-12-07T17:16:08;11.63;;;10.38;;
64799;SDS011;51233;51.982;4.594;2023-12-07T17:19:09;13.20;;;10.95;;
64799;SDS011;51233;51.982;4.594;2023-12-07T17:22:09;13.18;;;11.30;;
64799;SDS011;51233;51.982;4.594;2023-12-07T17:25:09;8.93;;;8.07;;
64799;SDS011;51233;51.982;4.594;2023-12-07T17:28:10;12.53;;;10.53;;
64799;SDS011;51233;51.982;4.594;2023-12-07T17:31:10;11.45;;;10.32;;
64799;SDS011;51233;51.982;4.594;2023-12-07T17:34:10;10.50;;;9.47;;
64799;SDS011;51233;51.982;4.594;2023-12-07T17:37:10;12.48;;;10.02;;
64799;SDS011;51233;51.982;4.594;2023-12-07T17:40:11;12.95;;;10.63;;
64799;SDS011;51233;51.982;4.594;2023-12-07T17:43:11;13.32;;;10.25;;
64799;SDS011;51233;51.982;4.594;2023-12-07T17:46:11;11.10;;;10.07;;
64799;SDS011;51233;51.982;4.594;2023-12-07T17:49:11;11.88;;;10.18;;
64799;SDS011;51233;51.982;4.594;2023-12-07T17:52:12;11.27;;;9.68;;
64799;SDS011;51233;51.982;4.594;2023-12-07T17:55:12;10.82;;;9.70;;
64799;SDS011;51233;51.982;4.594;2023-12-07T17:58:12;10.00;;;8.55;;
64799;SDS011;51233;51.982;4.594;2023-12-07T18:01:19;9.83;;;8.47;;
64799;SDS011;51233;51.982;4.594;2023-12-07T18:04:19;10.13;;;9.15;;
64799;SDS011;51233;51.982;4.594;2023-12-07T18:07:20;10.93;;;9.00;;